Amherst, Colorado
Current Conditions -  °F | °C
As of 10:35 AM on Saturday 25 Oct 2014 (Local Time) from KHEQ Reporting Station
Clear Clear  
Wind Chill: 64°   Ceiling: Unl
Heat Index: 64°   Visibility: 10mi
Dew Point: 34°   Wind: 6mph
Humidity: 32%   Direction: 350°N
Pressure: 30.16"   Gusts: NA
Location:  40.68°N, 102.17°W
Report Text: KHEQ 251635Z AUTO 35005KT 10SM CLR 18/01 A3016 RMK AO2
Loading
Personal Weather Stations






























Interactive Weather Map
Tropical Storm Tracking
New forecast layout! Learn more

10-Day Weather Forecast

Advertisements
Track Severe Weather on mobile